EUS37SM ENBR-EKVG
Flight info
| Callsign | EUS37SM |
|---|---|
| Flight time | 1h 37m |
| Altitude | 36000 |
| Route | REKLI DCT VALDI/M078F360 DCT ROBUR |
| Aircraft | B738/M-SDE2E3FGHIRWXY/LB1 |
Departure
| Time | 2026-05-08 21:46 |
|---|---|
| Airport | Bergen Airport, Flesland (ENBR) |
Arrival
| Time | 2026-05-08 23:24 |
|---|---|
| Airport | Vágar Airport (EKVG) |
| Time | Latitude | Longitude | Altitude | Speed | Heading |
|---|---|---|---|---|---|
| 2026-05-08 20:58 | 60.28366 | 5.22687 | 160 ft | 0 kts | 94° |
| 2026-05-08 21:37 | 60.28367 | 5.22654 | 160 ft | 4 kts | 89° |
| 2026-05-08 21:37 | 60.28367 | 5.22600 | 160 ft | 4 kts | 91° |
| 2026-05-08 21:38 | 60.28368 | 5.22561 | 160 ft | 0 kts | 91° |
| 2026-05-08 21:40 | 60.28368 | 5.22563 | 160 ft | 2 kts | 89° |
| 2026-05-08 21:41 | 60.28411 | 5.22569 | 161 ft | 10 kts | 350° |
| 2026-05-08 21:41 | 60.28487 | 5.22544 | 163 ft | 12 kts | 350° |
| 2026-05-08 21:41 | 60.28568 | 5.22514 | 166 ft | 12 kts | 349° |
| 2026-05-08 21:41 | 60.28652 | 5.22486 | 169 ft | 12 kts | 348° |
| 2026-05-08 21:42 | 60.28708 | 5.22362 | 168 ft | 13 kts | 325° |
| 2026-05-08 21:42 | 60.28810 | 5.22319 | 170 ft | 17 kts | 352° |
| 2026-05-08 21:42 | 60.28931 | 5.22273 | 170 ft | 18 kts | 349° |
| 2026-05-08 21:42 | 60.29054 | 5.22236 | 174 ft | 18 kts | 351° |
| 2026-05-08 21:43 | 60.29185 | 5.22190 | 169 ft | 22 kts | 351° |
| 2026-05-08 21:43 | 60.29351 | 5.22134 | 161 ft | 27 kts | 350° |
| 2026-05-08 21:43 | 60.29550 | 5.22067 | 154 ft | 31 kts | 350° |
| 2026-05-08 21:43 | 60.29745 | 5.21999 | 148 ft | 29 kts | 351° |
| 2026-05-08 21:44 | 60.29939 | 5.21934 | 155 ft | 27 kts | 351° |
| 2026-05-08 21:44 | 60.30121 | 5.21874 | 162 ft | 26 kts | 351° |
| 2026-05-08 21:44 | 60.30290 | 5.21818 | 170 ft | 24 kts | 351° |
| 2026-05-08 21:44 | 60.30445 | 5.21763 | 177 ft | 23 kts | 349° |
| 2026-05-08 21:45 | 60.30595 | 5.21716 | 183 ft | 20 kts | 351° |
| 2026-05-08 21:45 | 60.30656 | 5.21511 | 177 ft | 22 kts | 259° |
| 2026-05-08 21:45 | 60.30574 | 5.21402 | 176 ft | 10 kts | 170° |
| 2026-05-08 21:45 | 60.30540 | 5.21414 | 176 ft | 1 kts | 171° |
| 2026-05-08 21:46 | 60.30428 | 5.21451 | 173 ft | 62 kts | 171° |
| 2026-05-08 21:46 | 60.29615 | 5.21726 | 146 ft | 167 kts | 169° |
| 2026-05-08 21:46 | 60.28395 | 5.22203 | 1296 ft | 169 kts | 170° |
| 2026-05-08 21:46 | 60.27317 | 5.22561 | 3229 ft | 153 kts | 174° |
| 2026-05-08 21:47 | 60.26225 | 5.22874 | 4306 ft | 169 kts | 175° |
| 2026-05-08 21:47 | 60.24962 | 5.23243 | 4650 ft | 199 kts | 174° |
| 2026-05-08 21:47 | 60.23531 | 5.23683 | 5223 ft | 213 kts | 174° |
| 2026-05-08 21:47 | 60.21987 | 5.24175 | 5692 ft | 235 kts | 173° |
| 2026-05-08 21:48 | 60.20338 | 5.24720 | 6562 ft | 244 kts | 173° |
| 2026-05-08 21:48 | 60.18674 | 5.25285 | 7649 ft | 247 kts | 173° |
| 2026-05-08 21:48 | 60.16954 | 5.25873 | 8676 ft | 253 kts | 174° |
| 2026-05-08 21:48 | 60.15205 | 5.26442 | 9697 ft | 258 kts | 178° |
| 2026-05-08 21:49 | 60.13462 | 5.25768 | 10676 ft | 257 kts | 210° |
| 2026-05-08 21:49 | 60.12124 | 5.23422 | 11717 ft | 261 kts | 231° |
| 2026-05-08 21:49 | 60.11313 | 5.20113 | 12749 ft | 271 kts | 252° |
| 2026-05-08 21:49 | 60.11221 | 5.16285 | 13799 ft | 285 kts | 275° |
| 2026-05-08 21:50 | 60.11882 | 5.12452 | 14824 ft | 296 kts | 290° |
| 2026-05-08 21:50 | 60.12862 | 5.08800 | 15858 ft | 302 kts | 294° |
| 2026-05-08 21:50 | 60.13935 | 5.05163 | 16877 ft | 306 kts | 294° |
| 2026-05-08 21:50 | 60.15044 | 5.01460 | 17903 ft | 311 kts | 294° |
| 2026-05-08 21:51 | 60.16159 | 4.97705 | 18873 ft | 315 kts | 294° |
| 2026-05-08 21:51 | 60.17273 | 4.93911 | 19740 ft | 319 kts | 294° |
| 2026-05-08 21:51 | 60.18421 | 4.89948 | 20233 ft | 338 kts | 293° |
| 2026-05-08 21:51 | 60.19630 | 4.85713 | 20426 ft | 363 kts | 294° |
| 2026-05-08 21:52 | 60.20904 | 4.81241 | 20987 ft | 374 kts | 294° |
| 2026-05-08 21:52 | 60.22207 | 4.76675 | 21779 ft | 378 kts | 294° |
| 2026-05-08 21:52 | 60.23520 | 4.72065 | 22627 ft | 381 kts | 294° |
| 2026-05-08 21:52 | 60.24840 | 4.67409 | 23448 ft | 385 kts | 293° |
| 2026-05-08 21:53 | 60.26171 | 4.62698 | 24170 ft | 388 kts | 293° |
| 2026-05-08 21:53 | 60.27504 | 4.57967 | 24881 ft | 389 kts | 292° |
| 2026-05-08 21:53 | 60.28840 | 4.53213 | 25595 ft | 390 kts | 292° |
| 2026-05-08 21:53 | 60.30178 | 4.48437 | 26277 ft | 392 kts | 292° |
| 2026-05-08 21:54 | 60.31521 | 4.43633 | 26926 ft | 394 kts | 292° |
| 2026-05-08 21:54 | 60.32869 | 4.38798 | 27562 ft | 397 kts | 292° |
| 2026-05-08 21:54 | 60.34216 | 4.33955 | 28174 ft | 399 kts | 292° |
| 2026-05-08 21:54 | 60.35575 | 4.29060 | 28773 ft | 401 kts | 292° |
| 2026-05-08 21:55 | 60.36939 | 4.24137 | 29364 ft | 403 kts | 292° |
| 2026-05-08 21:55 | 60.38309 | 4.19182 | 29924 ft | 405 kts | 292° |
| 2026-05-08 21:55 | 60.39694 | 4.14162 | 30461 ft | 407 kts | 292° |
| 2026-05-08 21:56 | 60.42437 | 4.04200 | 31597 ft | 405 kts | 292° |
| 2026-05-08 21:56 | 60.43799 | 3.99237 | 32256 ft | 402 kts | 291° |
| 2026-05-08 21:56 | 60.45160 | 3.94260 | 32828 ft | 401 kts | 291° |
| 2026-05-08 21:56 | 60.46401 | 3.89358 | 33288 ft | 399 kts | 288° |
| 2026-05-08 21:57 | 60.47538 | 3.84146 | 33783 ft | 398 kts | 287° |
| 2026-05-08 21:57 | 60.48615 | 3.78994 | 34292 ft | 397 kts | 286° |
| 2026-05-08 21:57 | 60.49683 | 3.73814 | 34621 ft | 399 kts | 286° |
| 2026-05-08 21:57 | 60.50755 | 3.68600 | 34922 ft | 402 kts | 287° |
| 2026-05-08 21:58 | 60.51838 | 3.63349 | 35247 ft | 404 kts | 287° |
| 2026-05-08 21:58 | 60.52930 | 3.58075 | 35606 ft | 406 kts | 287° |
| 2026-05-08 21:58 | 60.54015 | 3.52846 | 35934 ft | 408 kts | 287° |
| 2026-05-08 21:58 | 60.55122 | 3.47510 | 36100 ft | 413 kts | 287° |
| 2026-05-08 21:59 | 60.56260 | 3.42014 | 36102 ft | 417 kts | 287° |
| 2026-05-08 21:59 | 60.58494 | 3.31230 | 36111 ft | 410 kts | 287° |
| 2026-05-08 22:00 | 60.60696 | 3.20536 | 36108 ft | 410 kts | 287° |
| 2026-05-08 22:00 | 60.62890 | 3.09809 | 36110 ft | 411 kts | 287° |
| 2026-05-08 22:01 | 60.65062 | 2.99129 | 36105 ft | 411 kts | 287° |
| 2026-05-08 22:01 | 60.67245 | 2.88340 | 36096 ft | 412 kts | 287° |
| 2026-05-08 22:02 | 60.69421 | 2.77537 | 36101 ft | 412 kts | 287° |
| 2026-05-08 22:02 | 60.71588 | 2.66711 | 36101 ft | 413 kts | 287° |
| 2026-05-08 22:03 | 60.73754 | 2.55834 | 36090 ft | 414 kts | 287° |
| 2026-05-08 22:03 | 60.75912 | 2.44939 | 36089 ft | 416 kts | 287° |
| 2026-05-08 22:04 | 60.78075 | 2.33963 | 36084 ft | 417 kts | 287° |
| 2026-05-08 22:04 | 60.80230 | 2.22963 | 36085 ft | 418 kts | 287° |
| 2026-05-08 22:05 | 60.82385 | 2.11904 | 36091 ft | 418 kts | 286° |
| 2026-05-08 22:05 | 60.84541 | 2.00781 | 36100 ft | 419 kts | 287° |
| 2026-05-08 22:06 | 60.86693 | 1.89593 | 36089 ft | 430 kts | 287° |
| 2026-05-08 22:06 | 60.88888 | 1.78124 | 36077 ft | 435 kts | 287° |
| 2026-05-08 22:07 | 60.91114 | 1.66452 | 36075 ft | 436 kts | 286° |
| 2026-05-08 22:07 | 60.93297 | 1.54933 | 36067 ft | 435 kts | 286° |
| 2026-05-08 22:08 | 60.95488 | 1.43289 | 36078 ft | 439 kts | 286° |
| 2026-05-08 22:08 | 60.97708 | 1.31408 | 36073 ft | 447 kts | 286° |
| 2026-05-08 22:09 | 60.99934 | 1.19444 | 36059 ft | 448 kts | 286° |
| 2026-05-08 22:09 | 61.02154 | 1.07438 | 36041 ft | 448 kts | 286° |
| 2026-05-08 22:10 | 61.04361 | 0.95424 | 36069 ft | 448 kts | 286° |
| 2026-05-08 22:10 | 61.06188 | 0.85417 | 36052 ft | 449 kts | 286° |
| 2026-05-08 22:11 | 61.08380 | 0.73345 | 36038 ft | 449 kts | 286° |
| 2026-05-08 22:11 | 61.10563 | 0.61244 | 36037 ft | 449 kts | 286° |
| 2026-05-08 22:12 | 61.12734 | 0.49131 | 36023 ft | 449 kts | 286° |
| 2026-05-08 22:12 | 61.14896 | 0.36996 | 36021 ft | 449 kts | 286° |
| 2026-05-08 22:13 | 61.17046 | 0.24846 | 36016 ft | 449 kts | 286° |
| 2026-05-08 22:13 | 61.19185 | 0.12690 | 36016 ft | 449 kts | 286° |
| 2026-05-08 22:14 | 61.21309 | 0.00517 | 36016 ft | 448 kts | 285° |
| 2026-05-08 22:14 | 61.22964 | -0.11313 | 36008 ft | 446 kts | 281° |
| 2026-05-08 22:15 | 61.24503 | -0.23786 | 35996 ft | 446 kts | 280° |
| 2026-05-08 22:15 | 61.26034 | -0.36261 | 35996 ft | 446 kts | 280° |
| 2026-05-08 22:16 | 61.27576 | -0.48699 | 35996 ft | 445 kts | 280° |
| 2026-05-08 22:16 | 61.29123 | -0.61161 | 35988 ft | 445 kts | 281° |
| 2026-05-08 22:17 | 61.30666 | -0.73668 | 35991 ft | 445 kts | 280° |
| 2026-05-08 22:17 | 61.32193 | -0.86156 | 35984 ft | 445 kts | 280° |
| 2026-05-08 22:18 | 61.33696 | -0.98559 | 35986 ft | 445 kts | 280° |
| 2026-05-08 22:18 | 61.35199 | -1.11070 | 35975 ft | 446 kts | 280° |
| 2026-05-08 22:19 | 61.36692 | -1.23608 | 35961 ft | 446 kts | 280° |
| 2026-05-08 22:19 | 61.38175 | -1.36166 | 35959 ft | 446 kts | 280° |
| 2026-05-08 22:20 | 61.39643 | -1.48709 | 35965 ft | 447 kts | 280° |
| 2026-05-08 22:20 | 61.41108 | -1.61340 | 35966 ft | 447 kts | 281° |
| 2026-05-08 22:21 | 61.42560 | -1.73951 | 35957 ft | 447 kts | 280° |
| 2026-05-08 22:21 | 61.44001 | -1.86575 | 35956 ft | 446 kts | 279° |
| 2026-05-08 22:22 | 61.45423 | -1.99201 | 35938 ft | 447 kts | 279° |
| 2026-05-08 22:22 | 61.46835 | -2.11816 | 35963 ft | 446 kts | 279° |
| 2026-05-08 22:23 | 61.48237 | -2.24474 | 35930 ft | 447 kts | 278° |
| 2026-05-08 22:23 | 61.49637 | -2.37206 | 35944 ft | 448 kts | 279° |
| 2026-05-08 22:24 | 61.51022 | -2.49924 | 35938 ft | 448 kts | 279° |
| 2026-05-08 22:24 | 61.52396 | -2.62664 | 35935 ft | 448 kts | 280° |
| 2026-05-08 22:25 | 61.53755 | -2.75414 | 35934 ft | 449 kts | 279° |
| 2026-05-08 22:25 | 61.55101 | -2.88141 | 35927 ft | 449 kts | 279° |
| 2026-05-08 22:26 | 61.56440 | -3.00936 | 35933 ft | 448 kts | 278° |
| 2026-05-08 22:26 | 61.57758 | -3.13654 | 35925 ft | 447 kts | 281° |
| 2026-05-08 22:27 | 61.59068 | -3.26417 | 35926 ft | 447 kts | 279° |
| 2026-05-08 22:27 | 61.59714 | -3.32743 | 35916 ft | 436 kts | 280° |
| 2026-05-08 22:27 | 61.60337 | -3.38839 | 35913 ft | 420 kts | 278° |
| 2026-05-08 22:28 | 61.61529 | -3.50650 | 35587 ft | 420 kts | 278° |
| 2026-05-08 22:28 | 61.62126 | -3.56656 | 35060 ft | 418 kts | 279° |
| 2026-05-08 22:28 | 61.62720 | -3.62650 | 34472 ft | 418 kts | 279° |
| 2026-05-08 22:28 | 61.63313 | -3.68644 | 33811 ft | 419 kts | 279° |
| 2026-05-08 22:29 | 61.63903 | -3.74612 | 33009 ft | 419 kts | 277° |
| 2026-05-08 22:29 | 61.64492 | -3.80602 | 32318 ft | 417 kts | 278° |
| 2026-05-08 22:29 | 61.65070 | -3.86534 | 31821 ft | 410 kts | 279° |
| 2026-05-08 22:29 | 61.65638 | -3.92386 | 31295 ft | 406 kts | 278° |
| 2026-05-08 22:30 | 61.66200 | -3.98165 | 30794 ft | 401 kts | 279° |
| 2026-05-08 22:30 | 61.66755 | -4.03919 | 30295 ft | 397 kts | 278° |
| 2026-05-08 22:30 | 61.67297 | -4.09578 | 29752 ft | 392 kts | 278° |
| 2026-05-08 22:30 | 61.67829 | -4.15167 | 29215 ft | 386 kts | 278° |
| 2026-05-08 22:31 | 61.68350 | -4.20658 | 28709 ft | 379 kts | 277° |
| 2026-05-08 22:31 | 61.68861 | -4.26062 | 28229 ft | 373 kts | 278° |
| 2026-05-08 22:31 | 61.69363 | -4.31353 | 27724 ft | 367 kts | 278° |
| 2026-05-08 22:31 | 61.69855 | -4.36617 | 27251 ft | 361 kts | 277° |
| 2026-05-08 22:32 | 61.70335 | -4.41780 | 26770 ft | 356 kts | 277° |
| 2026-05-08 22:32 | 61.70808 | -4.46870 | 26282 ft | 352 kts | 278° |
| 2026-05-08 22:32 | 61.71274 | -4.51915 | 25813 ft | 349 kts | 278° |
| 2026-05-08 22:32 | 61.71731 | -4.56899 | 25386 ft | 344 kts | 277° |
| 2026-05-08 22:33 | 61.72183 | -4.61822 | 24926 ft | 340 kts | 277° |
| 2026-05-08 22:33 | 61.72626 | -4.66695 | 24482 ft | 336 kts | 276° |
| 2026-05-08 22:33 | 61.73056 | -4.71441 | 24051 ft | 332 kts | 276° |
| 2026-05-08 22:33 | 61.73488 | -4.76210 | 23601 ft | 330 kts | 277° |
| 2026-05-08 22:34 | 61.73916 | -4.80939 | 23077 ft | 327 kts | 277° |
| 2026-05-08 22:34 | 61.74333 | -4.85594 | 22655 ft | 322 kts | 276° |
| 2026-05-08 22:34 | 61.74746 | -4.90220 | 22204 ft | 318 kts | 277° |
| 2026-05-08 22:34 | 61.75152 | -4.94773 | 21791 ft | 313 kts | 276° |
| 2026-05-08 22:35 | 61.75551 | -4.99271 | 21357 ft | 311 kts | 278° |
| 2026-05-08 22:35 | 61.75947 | -5.03757 | 20957 ft | 310 kts | 277° |
| 2026-05-08 22:35 | 61.76340 | -5.08228 | 20545 ft | 310 kts | 278° |
| 2026-05-08 22:35 | 61.76732 | -5.12710 | 20099 ft | 310 kts | 278° |
| 2026-05-08 22:36 | 61.77121 | -5.17165 | 19707 ft | 308 kts | 278° |
| 2026-05-08 22:36 | 61.77506 | -5.21586 | 19309 ft | 304 kts | 278° |
| 2026-05-08 22:36 | 61.77884 | -5.25947 | 18901 ft | 300 kts | 279° |
| 2026-05-08 22:36 | 61.78256 | -5.30273 | 18464 ft | 298 kts | 279° |
| 2026-05-08 22:37 | 61.78627 | -5.34586 | 18033 ft | 298 kts | 278° |
| 2026-05-08 22:37 | 61.78992 | -5.38858 | 17613 ft | 294 kts | 278° |
| 2026-05-08 22:37 | 61.79352 | -5.43089 | 17189 ft | 293 kts | 279° |
| 2026-05-08 22:37 | 61.79713 | -5.47338 | 16786 ft | 294 kts | 279° |
| 2026-05-08 22:38 | 61.80074 | -5.51599 | 16395 ft | 294 kts | 279° |
| 2026-05-08 22:38 | 61.80432 | -5.55839 | 15989 ft | 291 kts | 278° |
| 2026-05-08 22:38 | 61.80783 | -5.60011 | 15620 ft | 286 kts | 279° |
| 2026-05-08 22:38 | 61.81129 | -5.64140 | 15190 ft | 285 kts | 279° |
| 2026-05-08 22:39 | 61.81469 | -5.68218 | 14811 ft | 280 kts | 278° |
| 2026-05-08 22:39 | 61.81805 | -5.72265 | 14421 ft | 278 kts | 279° |
| 2026-05-08 22:39 | 61.82136 | -5.76269 | 14044 ft | 275 kts | 280° |
| 2026-05-08 22:39 | 61.82462 | -5.80222 | 13665 ft | 271 kts | 280° |
| 2026-05-08 22:40 | 61.82784 | -5.84148 | 13224 ft | 270 kts | 280° |
| 2026-05-08 22:40 | 61.83103 | -5.88053 | 12861 ft | 267 kts | 280° |
| 2026-05-08 22:40 | 61.83418 | -5.91917 | 12510 ft | 267 kts | 280° |
| 2026-05-08 22:40 | 61.83735 | -5.95822 | 12126 ft | 271 kts | 281° |
| 2026-05-08 22:41 | 61.84055 | -5.99768 | 11727 ft | 274 kts | 281° |
| 2026-05-08 22:41 | 61.84378 | -6.03770 | 11342 ft | 277 kts | 281° |
| 2026-05-08 22:41 | 61.84698 | -6.07764 | 10946 ft | 273 kts | 281° |
| 2026-05-08 22:41 | 61.85011 | -6.11685 | 10594 ft | 268 kts | 281° |
| 2026-05-08 22:42 | 61.85315 | -6.15505 | 10325 ft | 260 kts | 282° |
| 2026-05-08 22:42 | 61.85609 | -6.19213 | 10198 ft | 249 kts | 282° |
| 2026-05-08 22:42 | 61.85888 | -6.22747 | 10089 ft | 238 kts | 282° |
| 2026-05-08 22:42 | 61.86153 | -6.26128 | 10001 ft | 228 kts | 282° |
| 2026-05-08 22:43 | 61.86412 | -6.29415 | 9740 ft | 224 kts | 282° |
| 2026-05-08 22:43 | 61.86667 | -6.32650 | 9483 ft | 221 kts | 282° |
| 2026-05-08 22:43 | 61.86917 | -6.35842 | 9229 ft | 218 kts | 282° |
| 2026-05-08 22:43 | 61.87164 | -6.38991 | 8945 ft | 217 kts | 282° |
| 2026-05-08 22:44 | 61.87412 | -6.42168 | 8690 ft | 221 kts | 282° |
| 2026-05-08 22:44 | 61.87662 | -6.45368 | 8396 ft | 227 kts | 283° |
| 2026-05-08 22:44 | 61.87919 | -6.48704 | 8140 ft | 223 kts | 283° |
| 2026-05-08 22:44 | 61.88160 | -6.51867 | 7893 ft | 219 kts | 283° |
| 2026-05-08 22:45 | 61.88396 | -6.54999 | 7710 ft | 215 kts | 284° |
| 2026-05-08 22:45 | 61.88649 | -6.58116 | 7506 ft | 212 kts | 286° |
| 2026-05-08 22:45 | 61.88992 | -6.61147 | 7307 ft | 217 kts | 288° |
| 2026-05-08 22:45 | 61.89374 | -6.64304 | 6993 ft | 223 kts | 288° |
| 2026-05-08 22:46 | 61.89753 | -6.67479 | 6704 ft | 221 kts | 288° |
| 2026-05-08 22:46 | 61.90126 | -6.70616 | 6434 ft | 218 kts | 288° |
| 2026-05-08 22:46 | 61.90491 | -6.73709 | 6157 ft | 215 kts | 288° |
| 2026-05-08 22:46 | 61.90853 | -6.76786 | 5870 ft | 212 kts | 288° |
| 2026-05-08 22:47 | 61.91205 | -6.79787 | 5686 ft | 206 kts | 288° |
| 2026-05-08 22:47 | 61.91544 | -6.82696 | 5563 ft | 198 kts | 288° |
| 2026-05-08 22:47 | 61.91868 | -6.85475 | 5469 ft | 190 kts | 288° |
| 2026-05-08 22:47 | 61.92175 | -6.88118 | 5377 ft | 181 kts | 288° |
| 2026-05-08 22:48 | 61.92470 | -6.90660 | 5304 ft | 173 kts | 288° |
| 2026-05-08 22:48 | 61.92753 | -6.93097 | 5215 ft | 166 kts | 288° |
| 2026-05-08 22:48 | 61.93030 | -6.95471 | 5164 ft | 165 kts | 288° |
| 2026-05-08 22:48 | 61.93303 | -6.97823 | 5111 ft | 161 kts | 288° |
| 2026-05-08 22:49 | 61.93562 | -7.00066 | 5015 ft | 154 kts | 289° |
| 2026-05-08 22:49 | 61.94072 | -7.04496 | 4686 ft | 155 kts | 289° |
| 2026-05-08 22:49 | 61.94326 | -7.06716 | 4507 ft | 153 kts | 289° |
| 2026-05-08 22:50 | 61.94572 | -7.08878 | 4329 ft | 148 kts | 289° |
| 2026-05-08 22:50 | 61.94812 | -7.10984 | 4135 ft | 144 kts | 289° |
| 2026-05-08 22:50 | 61.95045 | -7.13025 | 3929 ft | 141 kts | 289° |
| 2026-05-08 22:50 | 61.95272 | -7.15024 | 3731 ft | 138 kts | 289° |
| 2026-05-08 22:51 | 61.95496 | -7.17000 | 3509 ft | 137 kts | 289° |
| 2026-05-08 22:51 | 61.95718 | -7.18958 | 3298 ft | 135 kts | 290° |
| 2026-05-08 22:51 | 61.95938 | -7.20866 | 3080 ft | 127 kts | 294° |
| 2026-05-08 22:51 | 61.96349 | -7.22546 | 2837 ft | 142 kts | 306° |
| 2026-05-08 22:52 | 61.96979 | -7.24092 | 2688 ft | 140 kts | 320° |
| 2026-05-08 22:52 | 61.97809 | -7.25098 | 2522 ft | 136 kts | 331° |
| 2026-05-08 22:52 | 61.98721 | -7.25663 | 2323 ft | 136 kts | 346° |
| 2026-05-08 22:52 | 61.99642 | -7.25537 | 2186 ft | 132 kts | 356° |
| 2026-05-08 22:53 | 62.00530 | -7.25113 | 1923 ft | 131 kts | 6° |
| 2026-05-08 22:53 | 62.01333 | -7.24168 | 1741 ft | 131 kts | 14° |
| 2026-05-08 22:53 | 62.02082 | -7.23252 | 1641 ft | 117 kts | 12° |
| 2026-05-08 22:53 | 62.02778 | -7.22426 | 1798 ft | 112 kts | 8° |
| 2026-05-08 22:54 | 62.03524 | -7.21824 | 1807 ft | 111 kts | 357° |
| 2026-05-08 22:54 | 62.04209 | -7.21923 | 1809 ft | 88 kts | 330° |
| 2026-05-08 22:54 | 62.04768 | -7.22612 | 1787 ft | 117 kts | 319° |
| 2026-05-08 22:54 | 62.05376 | -7.23972 | 2830 ft | 155 kts | 314° |
| 2026-05-08 22:55 | 62.06163 | -7.25834 | 2560 ft | 125 kts | 308° |
| 2026-05-08 22:55 | 62.06465 | -7.26856 | 4558 ft | 44 kts | 306° |
| 2026-05-08 22:55 | 62.06695 | -7.27693 | 3504 ft | 131 kts | 304° |
| 2026-05-08 22:55 | 62.07283 | -7.29975 | 2279 ft | 190 kts | 301° |
| 2026-05-08 22:56 | 62.07644 | -7.32566 | 2132 ft | 173 kts | 286° |
| 2026-05-08 22:56 | 62.07909 | -7.34825 | 2187 ft | 147 kts | 291° |
| 2026-05-08 22:56 | 62.08132 | -7.36836 | 2162 ft | 131 kts | 290° |
| 2026-05-08 22:56 | 62.08318 | -7.38638 | 2139 ft | 118 kts | 290° |
| 2026-05-08 22:57 | 62.08484 | -7.40327 | 2156 ft | 116 kts | 290° |
| 2026-05-08 22:57 | 62.08657 | -7.42089 | 2297 ft | 131 kts | 290° |
| 2026-05-08 22:57 | 62.08804 | -7.43477 | 2569 ft | 161 kts | 290° |
| 2026-05-08 22:57 | 62.09120 | -7.46133 | 3144 ft | 204 kts | 290° |
| 2026-05-08 22:58 | 62.09477 | -7.49100 | 3779 ft | 211 kts | 286° |
| 2026-05-08 22:58 | 62.09352 | -7.52296 | 3978 ft | 223 kts | 257° |
| 2026-05-08 22:58 | 62.08383 | -7.55048 | 4030 ft | 247 kts | 229° |
| 2026-05-08 22:58 | 62.06996 | -7.57333 | 4037 ft | 252 kts | 226° |
| 2026-05-08 22:59 | 62.05599 | -7.59605 | 4015 ft | 253 kts | 227° |
| 2026-05-08 22:59 | 62.04199 | -7.61854 | 4021 ft | 252 kts | 227° |
| 2026-05-08 22:59 | 62.02798 | -7.64090 | 4016 ft | 251 kts | 226° |
| 2026-05-08 22:59 | 62.01403 | -7.66320 | 4019 ft | 250 kts | 227° |
| 2026-05-08 23:00 | 62.00028 | -7.68545 | 4014 ft | 249 kts | 226° |
| 2026-05-08 23:00 | 61.98632 | -7.70680 | 4014 ft | 249 kts | 216° |
| 2026-05-08 23:00 | 61.96898 | -7.71531 | 4022 ft | 267 kts | 186° |
| 2026-05-08 23:00 | 61.95093 | -7.70488 | 4030 ft | 276 kts | 153° |
| 2026-05-08 23:01 | 61.93669 | -7.67739 | 4044 ft | 274 kts | 123° |
| 2026-05-08 23:01 | 61.92693 | -7.64287 | 4038 ft | 272 kts | 117° |
| 2026-05-08 23:01 | 61.91777 | -7.60802 | 4038 ft | 270 kts | 116° |
| 2026-05-08 23:01 | 61.90862 | -7.57301 | 4032 ft | 274 kts | 116° |
| 2026-05-08 23:02 | 61.89926 | -7.53741 | 4037 ft | 277 kts | 116° |
| 2026-05-08 23:02 | 61.88991 | -7.50179 | 4031 ft | 278 kts | 116° |
| 2026-05-08 23:02 | 61.88046 | -7.46592 | 4030 ft | 278 kts | 116° |
| 2026-05-08 23:02 | 61.87107 | -7.43022 | 4037 ft | 276 kts | 116° |
| 2026-05-08 23:03 | 61.86165 | -7.39438 | 4034 ft | 276 kts | 116° |
| 2026-05-08 23:03 | 61.85240 | -7.35903 | 4028 ft | 270 kts | 116° |
| 2026-05-08 23:03 | 61.84342 | -7.32474 | 4031 ft | 266 kts | 116° |
| 2026-05-08 23:03 | 61.83436 | -7.29036 | 4045 ft | 267 kts | 116° |
| 2026-05-08 23:04 | 61.82534 | -7.25606 | 4039 ft | 269 kts | 116° |
| 2026-05-08 23:04 | 61.81630 | -7.22183 | 4053 ft | 260 kts | 116° |
| 2026-05-08 23:04 | 61.80775 | -7.18953 | 4029 ft | 241 kts | 116° |
| 2026-05-08 23:04 | 61.79973 | -7.15953 | 4048 ft | 234 kts | 117° |
| 2026-05-08 23:05 | 61.79160 | -7.12875 | 4111 ft | 248 kts | 117° |
| 2026-05-08 23:05 | 61.78312 | -7.09607 | 4075 ft | 253 kts | 116° |
| 2026-05-08 23:05 | 61.77479 | -7.06393 | 4039 ft | 251 kts | 116° |
| 2026-05-08 23:05 | 61.76646 | -7.03193 | 4027 ft | 248 kts | 116° |
| 2026-05-08 23:06 | 61.75824 | -7.00055 | 4018 ft | 238 kts | 116° |
| 2026-05-08 23:06 | 61.75034 | -6.97054 | 4021 ft | 231 kts | 117° |
| 2026-05-08 23:06 | 61.74264 | -6.94131 | 4020 ft | 228 kts | 117° |
| 2026-05-08 23:06 | 61.73509 | -6.91235 | 4039 ft | 224 kts | 117° |
| 2026-05-08 23:07 | 61.72833 | -6.88270 | 4029 ft | 221 kts | 98° |
| 2026-05-08 23:07 | 61.72881 | -6.85195 | 4054 ft | 204 kts | 58° |
| 2026-05-08 23:07 | 61.73597 | -6.82852 | 4040 ft | 181 kts | 38° |
| 2026-05-08 23:07 | 61.74351 | -6.80811 | 4022 ft | 173 kts | 39° |
| 2026-05-08 23:08 | 61.75081 | -6.78844 | 3996 ft | 167 kts | 36° |
| 2026-05-08 23:08 | 61.75784 | -6.76902 | 4049 ft | 170 kts | 37° |
| 2026-05-08 23:08 | 61.76506 | -6.74903 | 4034 ft | 173 kts | 37° |
| 2026-05-08 23:08 | 61.77311 | -6.73141 | 4013 ft | 156 kts | 16° |
| 2026-05-08 23:09 | 61.78234 | -6.72014 | 4022 ft | 155 kts | 15° |
| 2026-05-08 23:09 | 61.79159 | -6.70821 | 4011 ft | 154 kts | 16° |
| 2026-05-08 23:09 | 61.80059 | -6.69626 | 4036 ft | 153 kts | 18° |
| 2026-05-08 23:09 | 61.80976 | -6.68401 | 4007 ft | 156 kts | 18° |
| 2026-05-08 23:10 | 61.81876 | -6.67138 | 4017 ft | 157 kts | 19° |
| 2026-05-08 23:10 | 61.82795 | -6.65827 | 4040 ft | 163 kts | 18° |
| 2026-05-08 23:10 | 61.83741 | -6.64521 | 4002 ft | 159 kts | 18° |
| 2026-05-08 23:10 | 61.84644 | -6.63254 | 4006 ft | 154 kts | 18° |
| 2026-05-08 23:11 | 61.85536 | -6.62000 | 4020 ft | 154 kts | 17° |
| 2026-05-08 23:11 | 61.86432 | -6.60737 | 4029 ft | 155 kts | 18° |
| 2026-05-08 23:11 | 61.87330 | -6.59483 | 4027 ft | 154 kts | 16° |
| 2026-05-08 23:11 | 61.88253 | -6.59180 | 4013 ft | 124 kts | 327° |
| 2026-05-08 23:12 | 61.88807 | -6.60484 | 4024 ft | 120 kts | 309° |
| 2026-05-08 23:12 | 61.89368 | -6.61817 | 4012 ft | 122 kts | 309° |
| 2026-05-08 23:12 | 61.89903 | -6.63241 | 4010 ft | 124 kts | 307° |
| 2026-05-08 23:12 | 61.90423 | -6.64717 | 4011 ft | 126 kts | 308° |
| 2026-05-08 23:13 | 61.90944 | -6.66204 | 4005 ft | 126 kts | 306° |
| 2026-05-08 23:13 | 61.91436 | -6.67731 | 4002 ft | 125 kts | 304° |
| 2026-05-08 23:13 | 61.91887 | -6.69272 | 4002 ft | 122 kts | 303° |
| 2026-05-08 23:13 | 61.92312 | -6.70823 | 4014 ft | 121 kts | 302° |
| 2026-05-08 23:14 | 61.92718 | -6.72368 | 4005 ft | 120 kts | 301° |
| 2026-05-08 23:14 | 61.93117 | -6.73930 | 4010 ft | 119 kts | 301° |
| 2026-05-08 23:14 | 61.93506 | -6.75481 | 4007 ft | 119 kts | 301° |
| 2026-05-08 23:14 | 61.93891 | -6.77029 | 4014 ft | 121 kts | 301° |
| 2026-05-08 23:15 | 61.94295 | -6.78666 | 4018 ft | 126 kts | 300° |
| 2026-05-08 23:15 | 61.94700 | -6.80318 | 4017 ft | 126 kts | 300° |
| 2026-05-08 23:15 | 61.95093 | -6.81925 | 4014 ft | 124 kts | 301° |
| 2026-05-08 23:15 | 61.95487 | -6.83535 | 4018 ft | 121 kts | 301° |
| 2026-05-08 23:16 | 61.95876 | -6.85124 | 4016 ft | 124 kts | 300° |
| 2026-05-08 23:16 | 61.96276 | -6.86760 | 4031 ft | 126 kts | 301° |
| 2026-05-08 23:16 | 61.96686 | -6.88434 | 4030 ft | 129 kts | 301° |
| 2026-05-08 23:16 | 61.97100 | -6.90126 | 4024 ft | 126 kts | 301° |
| 2026-05-08 23:17 | 61.97480 | -6.91682 | 4005 ft | 111 kts | 301° |
| 2026-05-08 23:17 | 61.97826 | -6.93098 | 4026 ft | 105 kts | 301° |
| 2026-05-08 23:17 | 61.98156 | -6.94443 | 4030 ft | 102 kts | 301° |
| 2026-05-08 23:17 | 61.98485 | -6.95782 | 4034 ft | 105 kts | 301° |
| 2026-05-08 23:18 | 61.98825 | -6.97169 | 3882 ft | 106 kts | 301° |
| 2026-05-08 23:18 | 61.99141 | -6.98458 | 3677 ft | 91 kts | 304° |
| 2026-05-08 23:18 | 61.99478 | -6.99733 | 3539 ft | 101 kts | 297° |
| 2026-05-08 23:18 | 61.99807 | -7.01145 | 3546 ft | 112 kts | 301° |
| 2026-05-08 23:19 | 62.00136 | -7.02545 | 3300 ft | 100 kts | 302° |
| 2026-05-08 23:19 | 62.00457 | -7.03831 | 3065 ft | 96 kts | 302° |
| 2026-05-08 23:19 | 62.00769 | -7.05070 | 2877 ft | 97 kts | 302° |
| 2026-05-08 23:19 | 62.01067 | -7.06284 | 2690 ft | 91 kts | 302° |
| 2026-05-08 23:20 | 62.01370 | -7.07528 | 2604 ft | 93 kts | 302° |
| 2026-05-08 23:20 | 62.01661 | -7.08719 | 2396 ft | 92 kts | 302° |
| 2026-05-08 23:20 | 62.01964 | -7.09937 | 2317 ft | 90 kts | 302° |
| 2026-05-08 23:20 | 62.02260 | -7.11145 | 2106 ft | 92 kts | 301° |
| 2026-05-08 23:21 | 62.02556 | -7.12333 | 1976 ft | 92 kts | 302° |
| 2026-05-08 23:21 | 62.02856 | -7.13548 | 1832 ft | 93 kts | 301° |
| 2026-05-08 23:21 | 62.03149 | -7.14746 | 1690 ft | 91 kts | 301° |
| 2026-05-08 23:21 | 62.03442 | -7.15932 | 1497 ft | 88 kts | 300° |
| 2026-05-08 23:22 | 62.03730 | -7.17109 | 1446 ft | 92 kts | 302° |
| 2026-05-08 23:22 | 62.04040 | -7.18329 | 1298 ft | 95 kts | 302° |
| 2026-05-08 23:22 | 62.04360 | -7.19533 | 1011 ft | 93 kts | 301° |
| 2026-05-08 23:22 | 62.04629 | -7.20748 | 935 ft | 89 kts | 300° |
| 2026-05-08 23:23 | 62.04920 | -7.21905 | 729 ft | 87 kts | 298° |
| 2026-05-08 23:23 | 62.05215 | -7.23080 | 622 ft | 95 kts | 297° |
| 2026-05-08 23:23 | 62.05517 | -7.24311 | 487 ft | 92 kts | 298° |
| 2026-05-08 23:23 | 62.05800 | -7.25476 | 348 ft | 91 kts | 298° |
| 2026-05-08 23:24 | 62.06131 | -7.26585 | 274 ft | 78 kts | 299° |
| 2026-05-08 23:24 | 62.06313 | -7.27242 | 270 ft | 7 kts | 291° |
| 2026-05-08 23:24 | 62.06328 | -7.27326 | 275 ft | 27 kts | 289° |
| 2026-05-08 23:24 | 62.06397 | -7.27685 | 282 ft | 25 kts | 297° |
| 2026-05-08 23:25 | 62.06491 | -7.27988 | 279 ft | 24 kts | 316° |
| 2026-05-08 23:25 | 62.06568 | -7.28106 | 277 ft | 0 kts | 347° |
| 2026-05-08 23:25 | 62.06570 | -7.28107 | 277 ft | 0 kts | 343° |
| 2026-05-08 23:25 | 62.06598 | -7.28101 | 277 ft | 6 kts | 10° |
| 2026-05-08 23:26 | 62.06649 | -7.28103 | 278 ft | 8 kts | 347° |
| 2026-05-08 23:26 | 62.06666 | -7.28109 | 278 ft | 4 kts | 357° |
| 2026-05-08 23:26 | 62.06691 | -7.28079 | 282 ft | 0 kts | 18° |
| 2026-05-08 23:26 | 62.06704 | -7.28058 | 278 ft | 1 kts | 46° |
| 2026-05-08 23:27 | 62.06705 | -7.28053 | 278 ft | 0 kts | 54° |